Cuernavaca, Mexico

5:22 PM CST on February 08, 2016 (GMT -0600)
Peoteccion Civil | | Change Station
CLOSE
Current Station
Personal Weather Station
Location: Cuernavaca, Morelos
Elevation: 4797 ft
Nearby Weather Stations

Elev 4797 ft 18.92 °N, 99.19 °W | Updated 12 minutes ago

Partly Cloudy
Partly Cloudy
78.6 °F
Feels Like 78 °F
N
0.0
Wind Variable Wind from SE

Today
High -- | Low -- °F
--% Chance of Precip.
Yesterday
High -- | Low -- °F
Precip. -- in
Pressure 30.02 in
Visibility 6.0 miles
Clouds Few 22000 ft
Heat Index 78 °F
Dew Point 39 °F
Humidity 24%
Rainfall in
Snow Depth Not available.
7:08 AM 6:33 PM
New Moon, 0% visible
METAR MMCB 082252Z 00000KT 6SM FEW220 28/M06 A3002 RMK 8/005 HZY
Pressure 30.02 in
Visibility 6.0 miles
Clouds Few 22000 ft
Heat Index 78 °F
Dew Point 39 °F
Humidity 24%
Rainfall in
Snow Depth Not available.
7:08 AM 6:33 PM
New Moon, 0% visible
METAR MMCB 082252Z 00000KT 6SM FEW220 28/M06 A3002 RMK 8/005 HZY

10-Day Weather Forecast

No radar image for this location.
×

Almanac

Astronomy

Feb. 08, 2016 Rise Set
Actual Time
Civil Twilight
Nautical Twilight
Astronomical Twilight
Moon
Length of Visible Light
Length of Day
Tomorrow will be .
, % of the Moon is Illuminated

Today's Extremes

Country Highs Country Lows

Community

WunderPhotos

Upload Photos

1,891,525 photos uploaded!

WunderBlog® & News

Nearby

Air Quality

  Air Quality AQ Index Pollutant
Not available.

Snow Depth

Station Depth Elevation

Earthquake Activity

City Distance Mag. Time & Date
Minimum magnitude displayed is 2.5.

Coastal Water Temperatures

Place Temperature

Stations

Nearby Weather Stations

Station Location Temp. Windchill Dew Point Humidity Wind Precip. Elev Updated Type